Terminal Aerodrome Forecast
Issued by NWS

Home | Current Version | Previous Version | Text Only | Print | Product List | Glossary On
Versions: 1 2 3 4 5 6 7 8 9 10 11 12 13
000
FTAK31 PAJN 021700
TAFASI
TAF
PASI 021724Z 0218/0318 12015KT P6SM OVC100
     FM022100 12015G25KT P6SM VCSH BKN050 OVC080 WS020/12035KT
     FM030000 12025G35KT 6SM -RA BR BKN035 OVC060 WS020/12045KT
     FM030600 13015G25KT 4SM -RA BR SCT010 BKN020 OVC040
      WS020/15035KT=

USA.gov is the U.S. government's official web portal to all federal, state and local government web resources and services.